• Join FlightAware (Why Join?)
  • Login
  • US Flag 
09:31AM EDT


 

Airport Tracker/Info


-or-


 

Live Flight TrackerFlight Track Log ✈ N7800 ✈ 23-Jun-2013 ✈ KLAS - KSMO

Flight Track Log - Related Links

Times and Time Zones

All times are in EDT time to prevent confusion due to time zone crossing. See the N7800 flight status page for this flight to view local times or setup timezone preferences in your user account.

Time Position Orientation Groundspeed Altitude Reporting Facility
EDT Latitude Longitude Course Direction KTS MPH feet Rate Location/Type
11:32PM 36.0583 -115.1661 164° South 84 97 3,800  Level Los Angeles Center
11:33PM 36.0494 -115.1631 164° South 88 101 4,000 840 Climbing Los Angeles Center
11:34PM 36.0119 -115.1583 174° South 99 114 5,200 1,140 Climbing Los Angeles Center
11:35PM 35.9808 -115.1583 180° South 107 123 6,400 1,020 Climbing Los Angeles Center
11:36PM 35.9536 -115.1647 191° South 104 120 7,400 1,080 Climbing Los Angeles Center
11:37PM 35.9286 -115.1889 218° Southwest 110 127 8,700 1,140 Climbing Los Angeles Center
11:38PM 35.9025 -115.1992 198° South 102 117 9,800 780 Climbing Los Angeles Center
11:39PM 35.8783 -115.2217 217° Southwest 104 120 10,500 300 Climbing Los Angeles Center
11:40PM 35.8378 -115.2625 219° Southwest 136 157 10,500  Level Los Angeles Center
11:41PM 35.7967 -115.2989 216° Southwest 153 176 10,600  Climbing Los Angeles Center
11:42PM 35.7586 -115.3381 220° Southwest 159 183 10,600  Level Los Angeles Center
11:43PM 35.7342 -115.3814 235° Southwest 154 177 10,600  Level Los Angeles Center
11:44PM 35.7072 -115.4256 233° Southwest 157 181 10,600  Level Los Angeles Center
11:45PM 35.6803 -115.4683 232° Southwest 158 182 10,600  Level Los Angeles Center
11:46PM 35.6522 -115.5092 230° Southwest 157 181 10,600  Level Los Angeles Center
11:47PM 35.6250 -115.5547 234° Southwest 162 186 10,600  Level Los Angeles Center
11:48PM 35.5975 -115.5961 231° Southwest 158 182 10,600  Level Los Angeles Center
11:49PM 35.5717 -115.6367 232° Southwest 153 176 10,600  Level Los Angeles Center
11:50PM 35.5422 -115.6833 232° Southwest 146 168 10,600  Level Los Angeles Center
11:52PM 35.5147 -115.7253 231° Southwest 153 176 10,600  Level Los Angeles Center
11:53PM 35.4886 -115.7658 232° Southwest 154 177 10,600  Level Los Angeles Center
11:54PM 35.4614 -115.8100 233° Southwest 157 181 10,700  Climbing Los Angeles Center
11:55PM 35.4336 -115.8500 230° Southwest 156 180 10,700  Level Los Angeles Center
11:56PM 35.4081 -115.8872 230° Southwest 151 174 10,700  Level Los Angeles Center
11:57PM 35.3839 -115.9269 233° Southwest 147 169 10,700  Level Los Angeles Center
11:58PM 35.3589 -115.9669 233° Southwest 147 169 10,700  Level Los Angeles Center
11:59PM 35.3333 -116.0078 233° Southwest 149 171 10,700  Level Los Angeles Center
12:00AM 35.3083 -116.0467 232° Southwest 148 170 10,700  Level Los Angeles Center
12:01AM 35.2744 -116.0983 231° Southwest 154 177 10,700  Level Los Angeles Center
12:02AM 35.2458 -116.1431 232° Southwest 161 185 10,700  Level Los Angeles Center
12:03AM 35.2183 -116.1850 231° Southwest 161 185 10,700  Level Los Angeles Center
12:04AM 35.1908 -116.2275 232° Southwest 160 184 10,700  Level Los Angeles Center
12:05AM 35.1639 -116.2681 231° Southwest 157 181 10,700 -120 Level Los Angeles Center
12:06AM 35.1347 -116.3142 232° Southwest 157 181 10,500 -120 Descending Los Angeles Center
12:07AM 35.1089 -116.3547 232° Southwest 160 184 10,500  Level Los Angeles Center
12:08AM 35.0775 -116.4028 231° Southwest 163 188 10,500  Level Los Angeles Center
12:09AM 35.0456 -116.4489 230° Southwest 162 186 10,500  Level Los Angeles Center
12:10AM 35.0181 -116.4897 231° Southwest 160 184 10,500  Level Los Angeles Center
12:11AM 34.9875 -116.5375 232° Southwest 161 185 10,500  Level Los Angeles Center
12:12AM 34.9619 -116.5761 231° Southwest 161 185 10,500  Level Los Angeles Center
12:13AM 34.9503 -116.6269 254° West 161 185 10,500  Level Los Angeles Center
12:14AM 34.9411 -116.6811 258° West 162 186 10,500  Level Los Angeles Center
12:15AM 34.9283 -116.7358 254° West 165 190 10,500  Level Los Angeles Center
12:16AM 34.9125 -116.8003 253° West 166 191 10,500  Level Los Angeles Center
12:17AM 34.9014 -116.8522 255° West 163 188 10,500  Level Los Angeles Center
12:18AM 34.8908 -116.9019 256° West 158 182 10,500 -60 Level Los Angeles Center
12:19AM 34.8800 -116.9525 255° West 156 180 10,400 -60 Descending Los Angeles Center
12:20AM 34.8675 -117.0053 254° West 158 182 10,400  Level Los Angeles Center
12:21AM 34.8569 -117.0567 256° West 158 182 10,400  Level Los Angeles Center
12:22AM 34.8469 -117.1039 256° West 153 176 10,400  Level Los Angeles Center
12:23AM 34.8358 -117.1519 254° West 149 171 10,400  Level Los Angeles Center
12:24AM 34.8247 -117.2006 254° West 149 171 10,500  Climbing Los Angeles Center
12:25AM 34.8144 -117.2492 256° West 149 171 10,500  Level Los Angeles Center
12:26AM 34.8008 -117.3086 254° West 150 173 10,500  Level Los Angeles Center
12:27AM 34.7900 -117.3581 255° West 150 173 10,500  Level Los Angeles Center
12:28AM 34.7800 -117.4072 256° West 150 173 10,500  Level Los Angeles Center
12:29AM 34.7683 -117.4564 254° West 150 173 10,500  Level Los Angeles Center
12:30AM 34.7564 -117.5092 255° West 156 180 10,500  Level Los Angeles Center
12:31AM 34.7450 -117.5606 255° West 158 182 10,500  Level Los Angeles Center
12:33AM 34.7347 -117.6086 255° West 153 176 10,500  Level Los Angeles Center
12:34AM 34.7256 -117.6472 254° West 149 171 10,500  Level Los Angeles Center
12:35AM 34.7128 -117.7050 255° West 148 170 10,500  Level Los Angeles Center
12:36AM 34.7014 -117.7547 254° West 150 173 10,500  Level Los Angeles Center
12:37AM 34.6894 -117.8042 254° West 152 175 10,500  Level Los Angeles Center
12:38AM 34.6781 -117.8625 257° West 149 171 10,500  Level Los Angeles Center
12:39AM 34.6650 -117.9192 254° West 146 168 10,500  Level Los Angeles Center
12:40AM 34.6536 -117.9672 254° West 147 169 10,500  Level Los Angeles Center
12:41AM 34.6425 -118.0161 255° West 150 173 10,500  Level Los Angeles Center
12:42AM 34.6317 -118.0642 255° West 150 173 10,500  Level Los Angeles Center
12:43AM 34.5925 -118.0897 208° Southwest 160 184 10,500  Level Los Angeles Center
12:44AM 34.5533 -118.1158 209° Southwest 160 184 10,500  Level Los Angeles Center
12:45AM 34.5139 -118.1400 207° Southwest 161 185 10,500  Level Los Angeles Center
12:46AM 34.4708 -118.1672 208° Southwest 160 184 10,500 -240 Level Los Angeles Center
12:47AM 34.4289 -118.1928 207° Southwest 168 193 10,000 -660 Descending Los Angeles Center
12:48AM 34.3653 -118.2347 209° Southwest 186 214 9,000 -1,020 Descending Los Angeles Center
12:49AM 34.3103 -118.2686 207° Southwest 186 214 7,800 -1,260 Descending Los Angeles Center
12:51AM 34.2597 -118.3000 207° Southwest 199 229 6,500 -1,260 Descending Los Angeles Center
12:52AM 34.2092 -118.3311 207° Southwest 202 232 5,300 -1,020 Descending Los Angeles Center
12:53AM 34.1547 -118.3303 179° South 199 229 4,500 -1,140 Descending Los Angeles Center
12:54AM 34.1069 -118.2994 152° Southeast 197 227 3,000 -1,260 Descending Los Angeles Center
12:55AM 34.0850 -118.3589 246° West 210 242 1,900 -1,080 Descending Los Angeles Center